createdAt,value
2022-07-30T00:01:21.954Z,1.00
2022-07-30T00:06:18.639Z,1.00
2022-07-30T00:08:45.609Z,1.00
2022-07-30T00:11:13.068Z,1.00
2022-07-30T00:40:49.276Z,1.00
2022-07-30T00:43:17.541Z,1.00
2022-07-30T00:45:45.070Z,1.00
2022-07-30T00:48:14.046Z,1.00
2022-07-30T00:50:41.798Z,1.00
2022-07-30T00:53:12.300Z,1.00
2022-07-30T00:55:39.434Z,1.00
2022-07-30T00:58:06.509Z,1.00
2022-07-30T01:00:33.502Z,1.00
2022-07-30T01:03:00.511Z,1.00
2022-07-30T01:05:27.501Z,1.00
2022-07-30T01:07:55.283Z,1.00
2022-07-30T01:10:22.613Z,1.00
2022-07-30T01:12:52.601Z,1.00
2022-07-30T01:15:20.365Z,1.00
2022-07-30T01:17:52.882Z,1.00
2022-07-30T01:21:05.739Z,11.10
2022-07-30T01:23:39.862Z,19.50
2022-07-30T01:26:14.970Z,44.80
2022-07-30T01:28:54.990Z,5.60
2022-07-30T01:31:26.081Z,18.70
2022-07-30T01:33:54.992Z,1.00
2022-07-30T01:36:23.489Z,1.00
2022-07-30T01:38:52.239Z,1.00
2022-07-30T01:41:20.493Z,27.90
2022-07-30T01:43:47.945Z,23.50
2022-07-30T01:46:17.815Z,34.40
2022-07-30T01:48:48.149Z,17.60
2022-07-30T01:51:18.392Z,27.90
2022-07-30T01:53:51.632Z,45.40
2022-07-30T01:56:24.507Z,49.00
2022-07-30T01:58:54.663Z,54.60
2022-07-30T02:01:25.102Z,90.30
2022-07-30T02:04:01.220Z,98.00
2022-07-30T02:06:42.873Z,96.60
2022-07-30T02:09:20.126Z,93.00
2022-07-30T02:12:07.068Z,99.80
2022-07-30T02:14:48.447Z,99.90
2022-07-30T02:17:30.159Z,99.90
2022-07-30T02:20:05.636Z,99.60
2022-07-30T02:22:41.072Z,99.90
2022-07-30T02:25:10.645Z,85.90
2022-07-30T02:27:42.134Z,68.80
2022-07-30T02:30:11.337Z,69.80
2022-07-30T02:32:42.891Z,92.10
2022-07-30T02:35:18.813Z,99.90
2022-07-30T02:37:50.803Z,99.90
2022-07-30T02:40:20.476Z,99.90
2022-07-30T02:42:50.659Z,99.90
2022-07-30T02:45:22.753Z,87.00
2022-07-30T02:47:58.938Z,83.50
2022-07-30T02:50:28.188Z,89.40
2022-07-30T02:52:58.501Z,69.10
2022-07-30T02:55:28.897Z,50.50
2022-07-30T02:57:57.732Z,47.40
2022-07-30T03:00:29.511Z,30.90
2022-07-30T03:02:57.756Z,31.70
2022-07-30T03:05:26.845Z,79.00
2022-07-30T03:07:59.762Z,43.90
2022-07-30T03:10:27.838Z,86.80
2022-07-30T03:12:56.339Z,71.30
2022-07-30T03:15:23.703Z,90.70
2022-07-30T03:17:55.548Z,52.60
2022-07-30T03:20:30.141Z,35.60
2022-07-30T03:22:59.972Z,42.20
2022-07-30T03:25:31.086Z,30.70
2022-07-30T03:28:04.070Z,41.50
2022-07-30T03:30:33.613Z,72.00
2022-07-30T03:33:01.278Z,99.90
2022-07-30T03:35:31.275Z,99.90
2022-07-30T03:38:00.059Z,99.90
2022-07-30T03:40:27.814Z,99.90
2022-07-30T03:42:55.958Z,99.90
2022-07-30T03:45:25.510Z,99.90
2022-07-30T03:47:58.250Z,99.90
2022-07-30T03:50:26.174Z,99.90
2022-07-30T03:52:53.729Z,99.90
2022-07-30T03:55:22.213Z,99.90
2022-07-30T03:57:49.345Z,99.90
2022-07-30T04:00:18.297Z,99.90
2022-07-30T04:02:50.079Z,99.90
2022-07-30T04:05:17.287Z,99.90
2022-07-30T04:07:46.549Z,99.90
2022-07-30T04:10:16.330Z,99.90
2022-07-30T04:13:12.553Z,99.90
2022-07-30T04:16:38.236Z,99.90
2022-07-30T04:18:51.229Z,99.90
2022-07-30T04:21:20.789Z,99.90
2022-07-30T04:24:02.295Z,99.90
2022-07-30T04:26:35.495Z,99.90
2022-07-30T04:29:06.944Z,99.90
2022-07-30T04:31:40.287Z,99.90
2022-07-30T04:34:55.994Z,99.90
2022-07-30T04:37:55.157Z,99.90
2022-07-30T04:40:22.300Z,99.90
2022-07-30T04:42:49.530Z,99.90
2022-07-30T04:45:16.937Z,99.90
2022-07-30T04:47:53.745Z,99.90
2022-07-30T04:50:46.346Z,99.90
2022-07-30T04:53:19.617Z,99.90
2022-07-30T04:55:57.311Z,99.90
2022-07-30T04:58:28.698Z,99.90
2022-07-30T05:00:57.911Z,99.90
2022-07-30T05:03:30.422Z,99.90
2022-07-30T05:05:59.113Z,99.90
2022-07-30T05:08:31.278Z,99.90
2022-07-30T05:11:00.901Z,99.90
2022-07-30T05:13:34.510Z,99.90
2022-07-30T05:16:05.805Z,99.90
2022-07-30T05:18:32.965Z,99.90
2022-07-30T05:21:00.163Z,1.00
2022-07-30T05:29:20.008Z,99.90
2022-07-30T05:32:09.720Z,1.00
2022-07-30T05:34:37.384Z,73.00
2022-07-30T05:37:05.009Z,99.90
2022-07-30T05:39:32.467Z,1.00
2022-07-30T05:42:19.905Z,1.00
2022-07-30T05:44:49.201Z,1.00
2022-07-30T05:47:16.198Z,1.00
2022-07-30T05:49:44.747Z,99.90
2022-07-30T05:52:15.111Z,99.90
2022-07-30T05:54:42.618Z,99.90
2022-07-30T05:57:36.799Z,99.90
2022-07-30T06:00:07.659Z,99.90
2022-07-30T06:02:43.864Z,99.90
2022-07-30T06:08:04.410Z,99.90
2022-07-30T06:10:32.286Z,99.90
2022-07-30T06:12:59.669Z,99.90
2022-07-30T06:15:27.141Z,99.90
2022-07-30T06:17:59.567Z,99.90
2022-07-30T06:20:55.692Z,99.90
2022-07-30T06:23:31.055Z,99.90
2022-07-30T06:26:09.381Z,99.90
2022-07-30T06:28:38.550Z,99.90
2022-07-30T06:31:15.210Z,99.90
2022-07-30T06:33:43.227Z,99.90
2022-07-30T06:36:14.046Z,99.90
2022-07-30T06:39:07.955Z,99.90
2022-07-30T06:42:00.819Z,99.90
2022-07-30T06:44:38.365Z,99.90
2022-07-30T06:47:28.940Z,99.90
2022-07-30T06:49:57.688Z,99.90
2022-07-30T06:52:26.309Z,1.00
2022-07-30T06:54:54.674Z,99.90
2022-07-30T06:57:38.751Z,99.90
2022-07-30T07:00:17.770Z,99.90
2022-07-30T07:02:46.174Z,99.90
2022-07-30T07:05:14.790Z,99.90
2022-07-30T07:07:58.188Z,99.90
2022-07-30T07:10:28.486Z,99.90
2022-07-30T07:13:16.009Z,99.90
2022-07-30T07:15:43.333Z,99.90
2022-07-30T07:18:15.406Z,99.90
2022-07-30T07:20:49.789Z,99.90
2022-07-30T07:23:19.599Z,99.90
2022-07-30T07:25:48.827Z,99.90
2022-07-30T07:28:16.760Z,99.90
2022-07-30T07:30:45.073Z,99.90
2022-07-30T07:33:15.616Z,99.90
2022-07-30T07:35:49.704Z,99.90
2022-07-30T07:38:25.783Z,99.90
2022-07-30T07:40:54.442Z,99.90
2022-07-30T07:43:22.023Z,99.90
2022-07-30T07:45:49.971Z,99.90
2022-07-30T07:48:19.258Z,99.90
2022-07-30T07:50:51.708Z,99.90
2022-07-30T07:53:30.691Z,99.90
2022-07-30T07:55:58.740Z,99.90
2022-07-30T07:58:27.166Z,99.90
2022-07-30T08:00:58.346Z,99.90
2022-07-30T08:03:45.352Z,99.90
2022-07-30T08:06:32.360Z,99.90
2022-07-30T08:09:43.859Z,99.90
2022-07-30T08:12:27.642Z,99.90
2022-07-30T08:15:13.165Z,99.90
2022-07-30T08:18:03.066Z,99.90
2022-07-30T08:20:39.843Z,99.90
2022-07-30T08:23:08.303Z,99.90
2022-07-30T08:25:35.425Z,99.90
2022-07-30T08:28:03.366Z,99.90
2022-07-30T08:30:31.502Z,15.50
2022-07-30T08:32:59.501Z,9.50
2022-07-30T08:35:26.565Z,4.80
2022-07-30T08:37:53.668Z,1.00
2022-07-30T08:40:26.516Z,1.00
2022-07-30T08:43:05.476Z,1.00
2022-07-30T08:45:35.280Z,1.00
2022-07-30T08:48:29.598Z,1.00
2022-07-30T08:50:57.189Z,1.00
2022-07-30T08:53:35.523Z,99.90
2022-07-30T08:56:04.775Z,99.90
2022-07-30T08:58:36.960Z,99.90
2022-07-30T09:01:05.998Z,99.90
2022-07-30T09:03:34.082Z,99.90
2022-07-30T15:19:19.309Z,99.90
2022-07-30T15:21:46.326Z,99.90
2022-07-30T15:24:13.347Z,99.90
2022-07-30T15:26:40.499Z,99.90
2022-07-30T15:29:11.641Z,99.90
2022-07-30T15:31:40.240Z,99.90
2022-07-30T15:34:10.899Z,99.90
2022-07-30T15:36:41.752Z,99.90
2022-07-30T15:39:08.772Z,99.90
2022-07-30T15:41:37.205Z,99.90
2022-07-30T15:44:04.641Z,99.90
2022-07-30T15:46:31.614Z,99.90
2022-07-30T15:48:58.950Z,99.90
2022-07-30T15:51:26.003Z,99.90
2022-07-30T15:53:52.986Z,99.90
2022-07-30T15:56:20.687Z,99.90
2022-07-30T15:58:47.783Z,99.90
2022-07-30T16:01:14.889Z,99.90
2022-07-30T20:09:44.839Z,99.90
2022-07-30T20:12:15.529Z,99.90
2022-07-30T20:14:44.125Z,99.90
2022-07-30T20:17:11.110Z,99.90
2022-07-30T20:19:38.192Z,99.90
2022-07-30T20:22:14.751Z,99.90
2022-07-30T20:24:42.466Z,99.90
2022-07-30T20:27:36.560Z,99.90
2022-07-30T20:29:56.720Z,99.90
2022-07-30T20:32:24.630Z,99.90
2022-07-30T20:34:52.377Z,99.90
2022-07-30T20:37:21.736Z,99.90
2022-07-30T20:39:50.469Z,99.90
2022-07-30T20:42:18.521Z,99.90
2022-07-30T20:44:49.375Z,99.90
2022-07-30T20:47:34.801Z,1.00
2022-07-30T20:50:10.776Z,99.90
2022-07-30T20:52:46.817Z,1.00
2022-07-30T20:55:22.058Z,68.00
2022-07-30T20:58:01.967Z,1.00
2022-07-30T21:00:40.811Z,99.90
2022-07-30T21:05:56.490Z,99.90
2022-07-30T21:08:25.557Z,99.90
2022-07-30T21:10:53.738Z,99.90
2022-07-30T21:13:22.951Z,99.90
2022-07-30T21:16:01.764Z,1.00
2022-07-30T21:18:31.488Z,1.00
2022-07-30T21:21:00.651Z,1.00
2022-07-30T21:23:27.881Z,1.00
2022-07-30T21:28:41.916Z,99.90
2022-07-30T21:31:09.800Z,99.90
2022-07-30T21:33:37.869Z,99.90
2022-07-30T21:36:10.502Z,99.90
2022-07-30T21:38:42.611Z,99.90
2022-07-30T21:41:15.247Z,99.90
2022-07-30T21:43:44.269Z,99.90
2022-07-30T21:46:12.381Z,99.90
2022-07-30T21:48:39.976Z,99.90
2022-07-30T21:51:08.519Z,99.90
2022-07-30T21:53:44.884Z,99.90
2022-07-30T21:56:14.997Z,99.90
2022-07-30T22:01:17.132Z,99.90
2022-07-30T22:04:03.274Z,1.00
2022-07-30T22:06:39.982Z,1.00
2022-07-30T22:09:19.345Z,1.00
2022-07-30T22:14:29.198Z,1.00
2022-07-30T22:16:56.918Z,1.00
2022-07-30T22:19:25.777Z,1.00
2022-07-30T22:32:04.106Z,1.00
2022-07-30T22:36:59.441Z,1.00
2022-07-30T22:39:32.249Z,99.90
2022-07-30T22:44:42.062Z,99.90
2022-07-30T22:47:18.958Z,4.60
2022-07-30T22:50:00.360Z,99.90
2022-07-30T22:54:59.656Z,71.10
2022-07-30T22:57:37.774Z,96.20
2022-07-30T23:00:14.251Z,91.80
2022-07-30T23:02:56.292Z,99.90
2022-07-30T23:05:24.052Z,99.90
2022-07-30T23:07:51.683Z,99.90
2022-07-30T23:10:20.332Z,99.90
2022-07-30T23:12:26.730Z,99.90
2022-07-30T23:12:31.574Z,1.00
2022-07-30T23:12:51.416Z,1.00
2022-07-30T23:15:19.813Z,99.90
2022-07-30T23:17:47.682Z,99.90
2022-07-30T23:20:23.157Z,99.90
2022-07-30T23:22:50.760Z,1.00
2022-07-30T23:25:18.189Z,99.90
2022-07-30T23:27:46.797Z,1.00
2022-07-30T23:30:14.417Z,1.00
2022-07-30T23:32:41.761Z,99.90
2022-07-30T23:35:10.608Z,1.00
2022-07-30T23:37:48.960Z,99.90
2022-07-30T23:40:18.615Z,99.90
2022-07-30T23:42:47.013Z,1.00
2022-07-30T23:45:14.139Z,1.00
2022-07-30T23:47:52.121Z,1.00
2022-07-30T23:50:29.504Z,1.00
2022-07-30T23:52:56.478Z,1.00
2022-07-30T23:55:23.705Z,56.20
2022-07-30T23:57:50.747Z,99.90
